createdAt,value
2023-01-13T00:03:44.877Z,3.00
2023-01-13T00:09:48.259Z,3.22
2023-01-13T00:15:57.236Z,3.35
2023-01-13T00:22:02.063Z,3.28
2023-01-13T00:28:06.360Z,3.08
2023-01-13T00:34:10.055Z,2.55
2023-01-13T00:40:15.389Z,3.13
2023-01-13T00:46:19.667Z,3.00
2023-01-13T00:52:23.161Z,3.00
2023-01-13T00:58:27.943Z,2.40
2023-01-13T01:04:31.308Z,2.67
2023-01-13T01:10:34.742Z,2.92
2023-01-13T01:16:40.164Z,2.40
2023-01-13T01:22:43.588Z,2.35
2023-01-13T01:28:47.265Z,2.58
2023-01-13T01:34:52.547Z,3.00
2023-01-13T01:40:55.913Z,3.03
2023-01-13T01:46:59.517Z,2.72
2023-01-13T01:53:06.824Z,2.22
2023-01-13T01:59:10.786Z,1.92
2023-01-13T02:05:14.757Z,0.80
2023-01-13T02:11:50.806Z,0.60
2023-01-13T02:18:07.369Z,0.40
2023-01-13T02:24:45.576Z,0.60
2023-01-13T02:31:11.867Z,1.00
2023-01-13T02:37:16.850Z,0.85
2023-01-13T02:43:40.104Z,0.80
2023-01-13T02:49:46.865Z,1.30
2023-01-13T02:55:51.841Z,1.00
2023-01-13T03:01:57.597Z,2.00
2023-01-13T03:08:18.403Z,1.65
2023-01-13T03:14:28.992Z,1.58
2023-01-13T03:20:35.516Z,1.60
2023-01-13T03:26:41.412Z,2.05
2023-01-13T03:32:47.929Z,1.30
2023-01-13T03:38:53.873Z,1.42
2023-01-13T03:44:59.122Z,1.38
2023-01-13T03:51:07.002Z,1.50
2023-01-13T03:57:11.970Z,1.65
2023-01-13T04:03:16.985Z,2.22
2023-01-13T04:09:25.181Z,2.17
2023-01-13T04:15:29.921Z,2.30
2023-01-13T04:21:33.360Z,2.22
2023-01-13T04:27:38.119Z,2.40
2023-01-13T04:33:41.593Z,1.95
2023-01-13T04:39:46.498Z,2.58
2023-01-13T04:45:51.538Z,2.30
2023-01-13T04:51:55.151Z,2.25
2023-01-13T04:58:02.833Z,3.60
2023-01-13T05:04:07.647Z,2.13
2023-01-13T05:10:12.043Z,1.80
2023-01-13T05:16:33.389Z,2.08
2023-01-13T05:22:55.543Z,2.65
2023-01-13T05:28:58.918Z,3.05
2023-01-13T05:35:02.416Z,2.50
2023-01-13T05:41:24.853Z,2.47
2023-01-13T05:47:28.238Z,2.63
2023-01-13T05:53:32.094Z,2.50
2023-01-13T05:59:36.852Z,1.95
2023-01-13T06:05:40.429Z,2.42
2023-01-13T06:11:43.855Z,2.55
2023-01-13T06:17:48.947Z,2.45
2023-01-13T06:23:52.429Z,1.92
2023-01-13T06:29:56.683Z,2.80
2023-01-13T06:36:03.625Z,2.20
2023-01-13T06:42:24.779Z,1.83
2023-01-13T06:48:33.007Z,2.10
2023-01-13T06:54:37.958Z,2.65
2023-01-13T07:00:41.588Z,2.03
2023-01-13T07:06:45.035Z,2.78
2023-01-13T07:13:08.333Z,2.78
2023-01-13T07:19:11.778Z,2.40
2023-01-13T07:25:15.612Z,2.50
2023-01-13T07:31:21.969Z,2.95
2023-01-13T07:37:25.420Z,2.35
2023-01-13T07:43:35.855Z,2.63
2023-01-13T07:49:40.627Z,2.33
2023-01-13T07:55:45.915Z,3.17
2023-01-13T08:01:49.433Z,2.50
2023-01-13T08:07:54.256Z,2.15
2023-01-13T08:13:58.555Z,2.33
2023-01-13T08:20:01.951Z,2.03
2023-01-13T08:26:07.576Z,2.60
2023-01-13T08:32:11.144Z,2.45
2023-01-13T08:38:14.567Z,1.63
2023-01-13T08:44:19.407Z,2.83
2023-01-13T08:50:23.157Z,1.60
2023-01-13T08:56:26.612Z,2.00
2023-01-13T09:02:31.431Z,2.33
2023-01-13T09:08:35.022Z,2.05
2023-01-13T09:14:39.216Z,1.50
2023-01-13T09:20:44.583Z,2.00
2023-01-13T09:26:48.303Z,1.70
2023-01-13T09:33:12.297Z,1.85
2023-01-13T09:39:17.068Z,1.40
2023-01-13T09:45:22.790Z,2.28
2023-01-13T09:51:30.010Z,2.20
2023-01-13T09:57:37.853Z,1.85
2023-01-13T10:03:41.915Z,1.83
2023-01-13T10:09:48.194Z,2.00
2023-01-13T10:16:02.737Z,2.20
2023-01-13T10:22:11.908Z,2.40
2023-01-13T10:28:19.274Z,1.80
2023-01-13T10:34:24.898Z,1.75
2023-01-13T10:40:28.336Z,2.10
2023-01-13T10:46:33.754Z,1.98
2023-01-13T10:52:42.942Z,2.22
2023-01-13T10:58:46.627Z,2.10
2023-01-13T11:05:00.622Z,2.25
2023-01-13T11:11:05.888Z,2.00
2023-01-13T11:17:16.629Z,1.67
2023-01-13T11:23:22.911Z,2.35
2023-01-13T11:29:30.770Z,1.80
2023-01-13T11:35:35.962Z,2.00
2023-01-13T11:41:44.729Z,1.55
2023-01-13T11:47:50.747Z,2.17
2023-01-13T11:54:02.587Z,2.03
2023-01-13T12:00:16.503Z,1.70
2023-01-13T12:06:25.536Z,2.10
2023-01-13T12:12:34.916Z,1.70
2023-01-13T12:18:57.169Z,1.70
2023-01-13T12:25:05.602Z,1.40
2023-01-13T12:31:09.789Z,1.67
2023-01-13T12:37:17.258Z,1.48
2023-01-13T12:43:40.828Z,1.55
2023-01-13T12:49:45.926Z,1.40
2023-01-13T12:55:53.189Z,1.40
2023-01-13T13:02:11.681Z,1.75
2023-01-13T13:08:24.489Z,1.10
2023-01-13T13:14:46.627Z,1.90
2023-01-13T13:20:57.758Z,1.27
2023-01-13T13:27:17.975Z,1.50
2023-01-13T13:33:31.656Z,1.00
2023-01-13T13:39:52.959Z,1.77
2023-01-13T13:46:15.322Z,1.80
2023-01-13T13:52:21.007Z,1.40
2023-01-13T13:58:26.310Z,1.10
2023-01-13T14:04:32.226Z,1.88
2023-01-13T14:10:36.874Z,2.13
2023-01-13T14:16:41.655Z,1.77
2023-01-13T14:22:49.890Z,2.03
2023-01-13T14:28:53.728Z,1.55
2023-01-13T14:34:57.153Z,1.65
2023-01-13T14:41:10.844Z,1.80
2023-01-13T14:47:20.677Z,1.58
2023-01-13T14:53:32.692Z,2.00
2023-01-13T14:59:51.775Z,2.60
2023-01-13T15:05:55.365Z,2.22
2023-01-13T15:11:58.872Z,1.75
2023-01-13T15:18:04.362Z,2.38
2023-01-13T15:24:08.170Z,1.73
2023-01-13T15:30:15.831Z,1.98
2023-01-13T15:36:24.780Z,2.40
2023-01-13T15:42:45.749Z,1.88
2023-01-13T15:48:54.718Z,1.95
2023-01-13T15:55:00.026Z,2.30
2023-01-13T16:01:03.779Z,2.05
2023-01-13T16:07:14.671Z,1.65
2023-01-13T16:13:19.491Z,2.38
2023-01-13T16:19:22.948Z,2.58
2023-01-13T16:25:27.468Z,2.83
2023-01-13T16:31:33.869Z,1.98
2023-01-13T16:37:37.305Z,3.50
2023-01-13T16:43:40.952Z,2.63
2023-01-13T16:49:45.992Z,2.58
2023-01-13T16:55:49.684Z,2.10
2023-01-13T17:01:53.549Z,3.58
2023-01-13T17:07:58.454Z,2.53
2023-01-13T17:14:18.240Z,2.65
2023-01-13T17:20:22.884Z,2.97
2023-01-13T17:26:38.227Z,3.25
2023-01-13T17:32:41.686Z,2.63
2023-01-13T17:38:45.065Z,2.60
2023-01-13T17:44:50.515Z,3.10
2023-01-13T17:50:54.191Z,2.30
2023-01-13T17:56:57.623Z,3.70
2023-01-13T18:03:02.493Z,3.30
2023-01-13T18:09:05.895Z,3.35
2023-01-13T18:15:09.760Z,4.57
2023-01-13T18:21:37.603Z,4.05
2023-01-13T18:27:41.784Z,3.88
2023-01-13T18:33:45.813Z,4.05
2023-01-13T18:39:50.623Z,2.70
2023-01-13T18:45:54.066Z,2.88
2023-01-13T18:51:57.702Z,3.78
2023-01-13T18:58:02.639Z,4.13
2023-01-13T19:04:10.387Z,4.07
2023-01-13T19:10:14.349Z,4.10
2023-01-13T19:16:19.803Z,3.97
2023-01-13T19:22:24.111Z,3.83
2023-01-13T19:28:27.573Z,4.10
2023-01-13T19:34:32.544Z,3.42
2023-01-13T19:40:36.026Z,2.80
2023-01-13T19:46:39.466Z,3.25
2023-01-13T19:52:44.497Z,3.63
2023-01-13T19:58:50.788Z,2.47
2023-01-13T20:04:55.873Z,2.97
2023-01-13T20:11:21.062Z,3.40
2023-01-13T20:17:25.574Z,3.28
2023-01-13T20:23:29.255Z,2.72
2023-01-13T20:29:34.500Z,4.00
2023-01-13T20:35:38.572Z,2.60
2023-01-13T20:41:59.740Z,3.50
2023-01-13T20:48:04.611Z,2.92
2023-01-13T20:54:09.221Z,4.55
2023-01-13T21:00:13.026Z,3.65
2023-01-13T21:06:20.395Z,2.95
2023-01-13T21:12:41.651Z,3.47
2023-01-13T21:19:02.642Z,3.17
2023-01-13T21:25:08.379Z,3.20
2023-01-13T21:31:11.828Z,3.90
2023-01-13T21:37:16.051Z,4.47
2023-01-13T21:43:38.424Z,4.55
2023-01-13T21:49:44.477Z,4.72
2023-01-13T21:55:51.890Z,4.75
2023-01-13T22:02:24.701Z,3.92
2023-01-13T22:08:28.571Z,3.75
2023-01-13T22:14:31.965Z,3.83
2023-01-13T22:20:36.735Z,3.15
2023-01-13T22:26:40.270Z,3.55
2023-01-13T22:32:43.842Z,3.45
2023-01-13T22:38:48.728Z,2.72
2023-01-13T22:44:52.141Z,3.50
2023-01-13T22:50:55.756Z,3.00
2023-01-13T22:57:00.597Z,3.05
2023-01-13T23:03:04.034Z,2.90
2023-01-13T23:09:07.842Z,3.70
2023-01-13T23:15:13.269Z,3.50
2023-01-13T23:21:17.487Z,3.08
2023-01-13T23:27:21.055Z,3.80
2023-01-13T23:33:25.850Z,3.67
2023-01-13T23:39:29.243Z,3.83
2023-01-13T23:45:32.624Z,3.67
2023-01-13T23:51:37.611Z,3.45
2023-01-13T23:57:41.395Z,3.28
